< < Back
Terminal Aerodrome Forecast


Current Version              Previous Versions:   1  2  3  4  5  6  7  8  9  

Terminal Aerodrome Forecast

177
FTUS44 KMRX 260958 AAA
TAFTYS
TAF AMD
KTYS 260958Z 2610/2706 22006KT P6SM SCT015 BKN100
     FM261300 26009KT P6SM BKN015
     FM261600 32012KT P6SM BKN050
     FM262300 35005KT P6SM SCT250=



Latest METAR

687
SAUS80 KWBC 270200 RRA
MTRTYS
METAR KTYS 270153Z 35003KT 10SM OVC045 13/08 A2983 RMK AO2 SLP096
T01280083 $


USA.gov is the U.S. government's official web portal to all federal, state and local government web resources and services.